Ride Results

Sparkler (10-09-2011)
Ride distance: 80.0 km

Outcomes - Sparkler (10-09-2011)
Division No. of Entries Retired / DNE Completed Withdrawn Ineligible V/O Percentage Completed
HW 21 - 14 2 1 4 66.67%
MW 40 - 32 3 - 5 80.00%
LW 19 - 12 1 - 6 63.16%
JN 23 - 21 2 - - 91.30%
Totals 103 - 79 8 1 15 76.70%
Results - Sparkler (10-09-2011)
No. Rider Horse Place Time Leg Speeds Total
Km/Hr
H/R bpm
Heavyweight
109 Paul Roosen Greywood Magenta 1 (BC) 4:58:00 14.7, 17.7 16.11 45, 45, 51 (Avg:48)
170 John Dugan Erin Park GBH 2 5:41:00 14.9, 13.3 14.08 32, 50, 53 (Avg:51)
106 Allyson Taylor Bonnie Downs Aisha 3 6:02:00 13.4, 13.0 13.26 37, 46, 58 (Avg:52)
194 Matthew Gadsby Ra Silver Dancer 4 6:19:00 12.3, 13.0 12.66 38, 48, 48 (Avg:48)
155 Jan Rohweder Charlie Chaplin 5 6:24:00 11.5, 13.5 12.50 34, 41, 44 (Avg:42)
142 Gregg Fields Dunwingeri Aquila 6 6:41:00 11.1, 12.9 11.97 38, 49, 50 (Avg:49)
159 Peter Toft Electra BBP Murdoch 7 7:06:00 10.6, 11.9 11.27 32, 39, 46 (Avg:42)
177 Bruce Moore Arabcrest Regal Spirit 8 7:09:00 11.1, 11.2 11.19 48, 47, 50 (Avg:48)
138 Anthony Wolgast Al Tivo 8 7:09:00 10.5, 11.9 11.19 36, 46, 50 (Avg:48)
127 Shannon Tatham Tutone Electra Blue 10 7:14:00 11.1, 11.0 11.06 42, 48, 52 (Avg:50)
162 Greg Garred Performance Park Apollo 11 7:27:00 10.6, 10.8 10.74 30, 45, 48 (Avg:46)
161 Jaime Mansbridge Lea Ma Park La Gold 11 7:27:00 10.6, 10.8 10.74 34, 43, 54 (Avg:48)
97 Maurice Gray Jezabella Princess Athena 13 7:44:00 11.2, 9.5 10.34 37, 47, 54 (Avg:50)
102 Ricky Petersen Southern Cross Princess 13 7:44:00 11.2, 9.5 10.34 43, 47, 49 (Avg:48)
184 Craig Ellison Jael Lame L2 0:00:00 12.6, 13.7 - 31, 43, 51 (Avg:47)
115 Michael Shaw Bellabin Lame L2 0:00:00 12.0, 14.9 - 41, 53, 60 (Avg:56)
183 Ven Grasso Indiana Jones te Heart Rate L1 0:00:00 14.9 - 30, 57 (Avg:57)
112 Jagaran Hale Drinktilyadrop Disqualified L1 0:00:00 13.4 - 36, 49 (Avg:49)
195 Paul Lengronne Tierview Feather Danczer Lame L1 0:00:00 11.2 - 38, 42 (Avg:42)
125 Angela Waldock Gundabah Fair Lady On track L1 0:00:00 - - 42, 55 (Avg:55)
190 Steve Barlow Sa-har Shetari On track P/R 0:00:00 - - -
Middleweight
150 Matt Sample Anglesea Trooper 1 4:57:00 18.4, 14.3 16.16 40, 52, 56 (Avg:54)
110 Sam Marquis Marja My Girl 2 5:21:15 17.0, 13.3 14.94 30, 44, 44 (Avg:44)
95 Billie Barron Littlebanks Crystal Wings 3 5:40:00 12.9, 15.4 14.12 40, 45, 51 (Avg:48)
131 Angela Head Sarandeep 4 5:45:00 12.9, 14.9 13.91 32, 43, 55 (Avg:49)
130 Tanya Trevarthen Manet Ibn Rashan 4 5:45:00 12.9, 14.9 13.91 36, 48, 52 (Avg:50)
171 Debra McQueen Isabelle te 6 5:48:00 13.1, 14.4 13.79 34, 40, 44 (Avg:42)
178 Bridget Nottle Rupert te 6 5:48:00 13.1, 14.4 13.79 30, 46, 48 (Avg:47)
158 Penny Toft High Society te 8 6:09:45 13.1, 12.7 12.98 42, 49, 53 (Avg:51)
180 Jackie Gilks Reid River Reflectshine 9 6:12:20 14.1, 11.8 12.89 38, 52, 53 (Avg:52)
145 Kristy Brundell Splendacrest Zafire 10 6:26:00 11.4, 13.6 12.44 29, 53, 55 (Avg:54)
122 Adam Dolman Inshallah Maximus 10 6:26:00 11.5, 13.4 12.44 46, 45, 48 (Avg:46)
118 Donna Pearce Windhaven Hussein 10 6:26:00 10.3, 15.5 12.44 36, 46, 60 (Avg:53)
148 Akhmed Pshunov Manana Gaylord 13 6:33:00 11.3, 13.1 12.21 38, 49, 49 (Avg:49)
182 Pierre DeWit Otis te 14 6:39:35 11.5, 12.5 12.01 34, 48, 47 (Avg:47)
160 Noni Seagrim La Ish Vir NZL 14 6:39:35 11.5, 12.5 12.01 33, 46, 46 (Avg:46)
103 Saasha Grogan S'Shaada Velvet 16 6:42:55 11.1, 12.8 11.91 42, 48, 55 (Avg:51)
189 Anne Barlow Tyto Ivan 17 6:45:00 11.1, 12.6 11.85 38, 47, 49 (Avg:48)
175 Bridget Macintyre Indira 17 6:45:00 12.3, 11.4 11.85 38, 52, 47 (Avg:49)
153 Camille Champagne-Bargenquast S'Shaada Kaiwan 19 6:55:00 10.4, 12.9 11.57 41, 48, 51 (Avg:49)
92 Sarah Love Fun 4 Us 20 6:58:00 11.0, 11.9 11.48 34, 42, 52 (Avg:47)
196 Marion Lengronne Kalkadoon Vienna 21 7:01:00 10.6, 12.3 11.40 45, 42, 49 (Avg:45)
197 Liz Terry Ausden Illusion 21 7:01:00 11.1, 11.6 11.40 40, 50, 55 (Avg:52)
181 Fabre Alisone Bremervale Justice 23 7:06:00 10.6, 11.9 11.27 33, 48, 47 (Avg:47)
165 Gayle Holmes Aloha Spartacus 23 7:06:00 11.1, 11.4 11.27 34, 41, 49 (Avg:45)
172 Warwick Toft Bremervale Shahrastani 23 7:06:00 10.4, 12.1 11.27 43, 46, 58 (Avg:52)
143 Debbie Edwards Bashan Silver Nadeer 26 7:09:00 10.5, 11.9 11.19 37, 41, 49 (Avg:45)
141 Jacinta Stubbings Ffire Storm 26 7:09:00 10.5, 11.9 11.19 41, 46, 49 (Avg:47)
123 Jeni Martin Jen Mar Ma Aj Mala 28 7:12:00 11.1, 11.0 11.11 41, 53, 53 (Avg:53)
188 Jackie Swan Shantele 29 7:23:00 11.1, 10.5 10.84 33, 41, 45 (Avg:43)
200 Paul Benham Orion 30 7:35:00 11.0, 10.0 10.55 33, 46, 53 (Avg:49)
101 Stephen Gray Shannons Psyche 31 7:44:00 11.3, 9.4 10.34 42, 55, 57 (Avg:56)
192 Renae Kuhn Tigerlilly 32 8:15:00 10.1, 9.2 9.70 26, 49, 54 (Avg:51)
185 Bec Miller Splendacrest Quidam Heart Rate L2 0:00:00 12.6, 13.7 - 47, 51, 65 (Avg:58)
116 Laura Axsentieff Midu Nemisis Heart Rate L1 0:00:00 11.2 - 37, 62 (Avg:62)
191 Gerard Bou Aloha Contiki Heart Rate L1 0:00:00 14.7 - 33, 57 (Avg:57)
164 Viv Butler Sooty Bye Royal On track L1 0:00:00 - - 35, 50 (Avg:50)
167 Lee Cutler Hillbrae Alec Heart Rate L1 0:00:00 11.4 - 34, 58 (Avg:58)
126 Rachel Goodwin Valinor Park Martini Lame L1 0:00:00 10.1 - 40, 46 (Avg:46)
108 Lesley Nancarrow Zenith Park Shiloh On track L1 0:00:00 - - 30, 53 (Avg:53)
139 Gabriele Sartori Caramea Morocco On track P/R 0:00:00 - - 39
Lightweight
146 Jeanna Maher Red Gum Trinket 1 5:21:00 18.3, 12.6 14.95 38, 52, 58 (Avg:55)
96 Angela Hawks Cameo Graziella 2 5:40:00 12.9, 15.4 14.12 34, 45, 51 (Avg:48)
179 Leigh Rich Leondon Maritz 3 6:12:00 14.1, 11.8 12.90 38, 42, 45 (Avg:43)
154 Christine Ablett Lindall Falen 4 6:24:00 11.5, 13.6 12.50 34, 40, 47 (Avg:43)
120 Jocelyn Barnes Trinity 5 6:26:00 11.3, 13.7 12.44 40, 39, 50 (Avg:44)
144 Serene Campbell Dunwingeri Shahman 6 6:41:00 11.1, 12.9 11.97 39, 48, 53 (Avg:50)
163 Bobbi Lochtenberg Matta Mia Arad 7 6:53:00 11.2, 12.0 11.62 40, 42, 51 (Avg:46)
128 Kelsey Irvine Brookleigh Silhouette 8 6:54:00 11.0, 12.2 11.59 34, 44, 50 (Avg:47)
176 Carla Jones Summer Park Douglas Explorer 9 7:09:00 11.1, 11.2 11.19 38, 45, 51 (Avg:48)
133 Amanda Powell Alamo Minelli 10 7:14:00 12.5, 9.8 11.06 40, 46, 52 (Avg:49)
137 Ruth White Dakila Renoasette 10 7:14:00 12.5, 9.8 11.06 34, 48, 49 (Avg:48)
132 Natashja Burton Taj Miranda 12 7:23:00 11.4, 10.3 10.84 38, 46, 51 (Avg:48)
129 Shelley-ann Kimber Splendercrest Patriot Lame L2 0:00:00 11.0, 12.2 - 36, 44, 48 (Avg:46)
193 Amanda Phillips Aloha Rain Dance Lame L2 0:00:00 10.6, 12.3 - 36, 44, 47 (Avg:45)
149 Amina Vogt Shardell Arriston Lame L2 0:00:00 11.1, 9.1 - 36, 47, 56 (Avg:51)
117 Robin Young Melawondi Lame L2 0:00:00 12.7, 11.0 - 33, 43, 45 (Avg:44)
169 Judy Battams Landmark Sarafeena On track L1 0:00:00 - - 36, 54 (Avg:54)
124 Christine Christie Duke Heart Rate L1 0:00:00 10.8 - 38, 60 (Avg:60)
134 Janelle Weise BJ Lame L1 0:00:00 11.3 - 32, 40 (Avg:40)
Junior
156 Timothy Sutcliffe Haftado Double Identity 1 (BC) 5:20:00 17.1, 13.3 15.00 33, 47, 51 (Avg:49)
135 Rilene Heydenreich Liberator 2 5:33:00 13.4, 15.4 14.41 32, 45, 52 (Avg:48)
105 Rhiannon Corney Bonnie Downs Samir 3 6:01:00 13.4, 13.1 13.30 36, 46, 58 (Avg:52)
186 Jessyca Dakin Sundust Flame 4 6:04:00 12.3, 14.2 13.19 40, 48, 51 (Avg:49)
187 Tasha Jeremy Chaswyck The Maverick 4 6:04:00 12.3, 14.2 13.19 38, 45, 53 (Avg:49)
121 Sarah Huddleston Bellarine Passiona 6 6:08:00 13.2, 12.8 13.04 36, 49, 50 (Avg:49)
173 Georgia Toft Bremervale Arrogance 7 6:09:00 13.1, 12.8 13.01 40, 51, 55 (Avg:53)
157 Alexandra Toft Zalman 8 6:09:30 13.1, 12.7 12.99 32, 41, 43 (Avg:42)
199 Hannah Terry Kalkadoon Alfresco 9 6:19:00 12.3, 13.0 12.66 37, 46, 52 (Avg:49)
136 Jess Fuhlbohm Ausden Prince Mahal 10 6:26:00 11.4, 13.6 12.44 32, 47, 52 (Avg:49)
104 Dylan Keys Elfar Sword O'Fire 11 6:30:00 11.5, 13.1 12.31 34, 42, 49 (Avg:45)
151 Lainie Zischke Captain Creek Tall Boy 12 6:39:00 11.2, 12.9 12.03 38, 46, 60 (Avg:53)
113 Julia Mills Emac 13 6:42:00 11.1, 12.8 11.94 36, 54, 54 (Avg:54)
114 Jade Vergis Carnarvon Kasserine Magic 13 6:42:00 11.1, 12.8 11.94 34, 39, 45 (Avg:42)
152 Jamie Green S'Shaada Solomon 15 6:55:00 10.4, 12.9 11.57 35, 45, 50 (Avg:47)
94 David Anderson Jnr Triple M! 16 6:58:00 11.0, 11.9 11.48 35, 37, 42 (Avg:39)
198 Jessica Terry Deep Forest Contest 17 7:01:00 10.6, 12.3 11.40 34, 46, 53 (Avg:49)
168 Tayla Hadzi Captain's Creek Rupert 18 7:06:00 11.1, 11.4 11.27 33, 38, 42 (Avg:40)
166 Matilda Hose Cairo 18 7:06:00 11.1, 11.4 11.27 36, 44, 43 (Avg:43)
140 Christina Simpson Agape Evezra 20 7:09:00 10.5, 11.9 11.19 39, 46, 52 (Avg:49)
107 Troy Roosen The Ghost 21 7:44:00 11.2, 9.5 10.34 42, 48, 53 (Avg:50)
93 Kasey Anderson Kalkadoon Ricochet On track L1 0:00:00 - - 37, 43 (Avg:43)
174 Madeline Toft Bremervale Savannah On track L1 0:00:00 - - 41, 45 (Avg:45)